Terminal Aerodrome Forecast
Issued by NWS Shreveport, LA

Home | Current Version | Previous Version | Text Only | Print | Product List | Glossary On
Versions: 1 2 3 4 5 6 7 8 9 10 11 12 13 14 15 16 17 18 19 20 21
000
FTUS44 KSHV 011745
TAFSHV
TAF
KSHV 011745Z 0118/0218 20011KT P6SM SCT030 BKN040 OVC250
     FM012100 18010KT P6SM VCTS SCT050CB OVC250
     FM020400 17009KT P6SM SCT080 BKN250
     FM020800 18008KT 6SM BR BKN015
      TEMPO 0209/0213 5SM BR OVC008
     FM021600 19012G18KT P6SM BKN025 OVC035=

USA.gov is the U.S. government's official web portal to all federal, state and local government web resources and services.